sensor_id;sensor_type;location;lat;lon;timestamp;temperature;humidity
23156;DHT22;11746;50.876;4.246;2023-06-19T00:00:19;19.20;99.90
23156;DHT22;11746;50.876;4.246;2023-06-19T00:02:45;19.40;99.90
23156;DHT22;11746;50.876;4.246;2023-06-19T00:05:12;19.40;99.90
23156;DHT22;11746;50.876;4.246;2023-06-19T00:07:39;19.50;99.90
23156;DHT22;11746;50.876;4.246;2023-06-19T00:10:06;19.40;99.90
23156;DHT22;11746;50.876;4.246;2023-06-19T00:12:32;19.40;99.90
23156;DHT22;11746;50.876;4.246;2023-06-19T00:14:58;19.50;99.90
23156;DHT22;11746;50.876;4.246;2023-06-19T00:17:24;19.50;99.90
23156;DHT22;11746;50.876;4.246;2023-06-19T00:19:53;19.60;99.90
23156;DHT22;11746;50.876;4.246;2023-06-19T00:22:19;19.60;99.90
23156;DHT22;11746;50.876;4.246;2023-06-19T00:24:45;19.60;99.90
23156;DHT22;11746;50.876;4.246;2023-06-19T00:27:11;19.50;99.90
23156;DHT22;11746;50.876;4.246;2023-06-19T00:29:37;19.70;99.90
23156;DHT22;11746;50.876;4.246;2023-06-19T00:32:03;19.60;99.90
23156;DHT22;11746;50.876;4.246;2023-06-19T00:34:30;19.70;99.90
23156;DHT22;11746;50.876;4.246;2023-06-19T00:36:57;19.60;99.90
23156;DHT22;11746;50.876;4.246;2023-06-19T00:39:24;19.40;99.90
23156;DHT22;11746;50.876;4.246;2023-06-19T00:41:54;19.50;99.90
23156;DHT22;11746;50.876;4.246;2023-06-19T00:44:20;19.50;99.90
23156;DHT22;11746;50.876;4.246;2023-06-19T00:46:46;19.50;99.90
23156;DHT22;11746;50.876;4.246;2023-06-19T00:49:14;19.50;99.90
23156;DHT22;11746;50.876;4.246;2023-06-19T00:51:40;19.50;99.90
23156;DHT22;11746;50.876;4.246;2023-06-19T00:54:06;19.40;99.90
23156;DHT22;11746;50.876;4.246;2023-06-19T00:56:33;19.40;99.90
23156;DHT22;11746;50.876;4.246;2023-06-19T00:59:01;19.40;99.90
23156;DHT22;11746;50.876;4.246;2023-06-19T01:01:31;19.30;99.90
23156;DHT22;11746;50.876;4.246;2023-06-19T01:03:57;19.30;99.90
23156;DHT22;11746;50.876;4.246;2023-06-19T01:06:27;19.40;99.90
23156;DHT22;11746;50.876;4.246;2023-06-19T01:09:06;19.30;99.90
23156;DHT22;11746;50.876;4.246;2023-06-19T01:11:48;19.40;99.90
23156;DHT22;11746;50.876;4.246;2023-06-19T01:14:21;19.50;99.90
23156;DHT22;11746;50.876;4.246;2023-06-19T01:16:49;19.60;99.90
23156;DHT22;11746;50.876;4.246;2023-06-19T01:19:24;19.50;99.90
23156;DHT22;11746;50.876;4.246;2023-06-19T01:21:51;19.50;99.90
23156;DHT22;11746;50.876;4.246;2023-06-19T01:24:17;19.70;99.90
23156;DHT22;11746;50.876;4.246;2023-06-19T01:26:43;19.80;99.90
23156;DHT22;11746;50.876;4.246;2023-06-19T01:29:16;19.70;99.90
23156;DHT22;11746;50.876;4.246;2023-06-19T01:31:55;19.60;99.90
23156;DHT22;11746;50.876;4.246;2023-06-19T01:34:26;19.50;99.90
23156;DHT22;11746;50.876;4.246;2023-06-19T01:36:54;19.50;99.90
23156;DHT22;11746;50.876;4.246;2023-06-19T01:39:23;19.40;99.90
23156;DHT22;11746;50.876;4.246;2023-06-19T01:41:50;19.40;99.90
23156;DHT22;11746;50.876;4.246;2023-06-19T01:44:17;19.50;99.90
23156;DHT22;11746;50.876;4.246;2023-06-19T01:46:48;19.50;99.90
23156;DHT22;11746;50.876;4.246;2023-06-19T01:49:14;19.50;99.90
23156;DHT22;11746;50.876;4.246;2023-06-19T01:51:40;19.50;99.90
23156;DHT22;11746;50.876;4.246;2023-06-19T01:54:06;19.50;99.90
23156;DHT22;11746;50.876;4.246;2023-06-19T01:56:32;19.30;99.90
23156;DHT22;11746;50.876;4.246;2023-06-19T01:58:58;19.40;99.90
23156;DHT22;11746;50.876;4.246;2023-06-19T02:01:25;19.30;99.90
23156;DHT22;11746;50.876;4.246;2023-06-19T02:03:51;19.30;99.90
23156;DHT22;11746;50.876;4.246;2023-06-19T02:06:17;19.40;99.90
23156;DHT22;11746;50.876;4.246;2023-06-19T02:08:43;19.30;99.90
23156;DHT22;11746;50.876;4.246;2023-06-19T02:11:09;19.40;99.90
23156;DHT22;11746;50.876;4.246;2023-06-19T02:13:35;19.50;99.90
23156;DHT22;11746;50.876;4.246;2023-06-19T02:16:01;19.50;99.90
23156;DHT22;11746;50.876;4.246;2023-06-19T02:18:27;19.60;99.90
23156;DHT22;11746;50.876;4.246;2023-06-19T02:20:53;19.50;99.90
23156;DHT22;11746;50.876;4.246;2023-06-19T02:23:21;19.40;99.90
23156;DHT22;11746;50.876;4.246;2023-06-19T02:25:46;19.40;99.90
23156;DHT22;11746;50.876;4.246;2023-06-19T02:28:12;19.40;99.90
23156;DHT22;11746;50.876;4.246;2023-06-19T02:30:38;19.30;99.90
23156;DHT22;11746;50.876;4.246;2023-06-19T02:33:04;19.40;99.90
23156;DHT22;11746;50.876;4.246;2023-06-19T02:35:30;19.40;99.90
23156;DHT22;11746;50.876;4.246;2023-06-19T02:37:56;19.50;99.90
23156;DHT22;11746;50.876;4.246;2023-06-19T02:40:23;19.50;99.90
23156;DHT22;11746;50.876;4.246;2023-06-19T02:42:49;19.60;99.90
23156;DHT22;11746;50.876;4.246;2023-06-19T02:45:15;19.60;99.90
23156;DHT22;11746;50.876;4.246;2023-06-19T02:47:41;19.60;99.90
23156;DHT22;11746;50.876;4.246;2023-06-19T02:50:08;19.50;99.90
23156;DHT22;11746;50.876;4.246;2023-06-19T02:52:34;19.40;99.90
23156;DHT22;11746;50.876;4.246;2023-06-19T02:54:59;19.50;99.90
23156;DHT22;11746;50.876;4.246;2023-06-19T02:57:25;19.50;99.90
23156;DHT22;11746;50.876;4.246;2023-06-19T02:59:51;19.70;99.90
23156;DHT22;11746;50.876;4.246;2023-06-19T03:02:18;19.70;99.90
23156;DHT22;11746;50.876;4.246;2023-06-19T03:04:44;19.70;99.90
23156;DHT22;11746;50.876;4.246;2023-06-19T03:07:10;19.60;99.90
23156;DHT22;11746;50.876;4.246;2023-06-19T03:09:36;19.50;99.90
23156;DHT22;11746;50.876;4.246;2023-06-19T03:12:02;19.40;99.90
23156;DHT22;11746;50.876;4.246;2023-06-19T03:14:28;19.20;99.90
23156;DHT22;11746;50.876;4.246;2023-06-19T03:16:54;19.20;99.90
23156;DHT22;11746;50.876;4.246;2023-06-19T03:19:20;19.20;99.90
23156;DHT22;11746;50.876;4.246;2023-06-19T03:21:46;19.10;99.90
23156;DHT22;11746;50.876;4.246;2023-06-19T03:24:12;19.20;99.90
23156;DHT22;11746;50.876;4.246;2023-06-19T03:26:38;19.40;99.90
23156;DHT22;11746;50.876;4.246;2023-06-19T03:29:04;19.10;99.90
23156;DHT22;11746;50.876;4.246;2023-06-19T03:31:29;19.00;99.90
23156;DHT22;11746;50.876;4.246;2023-06-19T03:33:57;19.00;99.90
23156;DHT22;11746;50.876;4.246;2023-06-19T03:36:22;18.90;99.90
23156;DHT22;11746;50.876;4.246;2023-06-19T03:38:48;19.00;99.90
23156;DHT22;11746;50.876;4.246;2023-06-19T03:41:14;18.90;99.90
23156;DHT22;11746;50.876;4.246;2023-06-19T03:43:40;18.90;99.90
23156;DHT22;11746;50.876;4.246;2023-06-19T03:46:06;18.80;99.90
23156;DHT22;11746;50.876;4.246;2023-06-19T03:48:32;18.70;99.90
23156;DHT22;11746;50.876;4.246;2023-06-19T03:50:59;18.80;99.90
23156;DHT22;11746;50.876;4.246;2023-06-19T03:53:25;18.80;99.90
23156;DHT22;11746;50.876;4.246;2023-06-19T03:55:50;18.80;99.90
23156;DHT22;11746;50.876;4.246;2023-06-19T03:58:16;18.80;99.90
23156;DHT22;11746;50.876;4.246;2023-06-19T04:00:42;18.90;99.90
23156;DHT22;11746;50.876;4.246;2023-06-19T04:03:08;18.90;99.90
23156;DHT22;11746;50.876;4.246;2023-06-19T04:05:35;18.80;99.90
23156;DHT22;11746;50.876;4.246;2023-06-19T04:08:01;18.80;99.90
23156;DHT22;11746;50.876;4.246;2023-06-19T04:10:27;18.90;99.90
23156;DHT22;11746;50.876;4.246;2023-06-19T04:12:52;18.90;99.90
23156;DHT22;11746;50.876;4.246;2023-06-19T04:15:21;18.90;99.90
23156;DHT22;11746;50.876;4.246;2023-06-19T04:17:47;18.90;99.90
23156;DHT22;11746;50.876;4.246;2023-06-19T04:20:13;18.70;99.90
23156;DHT22;11746;50.876;4.246;2023-06-19T04:22:40;18.60;99.90
23156;DHT22;11746;50.876;4.246;2023-06-19T04:25:10;18.80;99.90
23156;DHT22;11746;50.876;4.246;2023-06-19T04:27:39;18.90;99.90
23156;DHT22;11746;50.876;4.246;2023-06-19T04:30:05;18.90;99.90
23156;DHT22;11746;50.876;4.246;2023-06-19T04:32:35;18.80;99.90
23156;DHT22;11746;50.876;4.246;2023-06-19T04:35:01;18.70;99.90
23156;DHT22;11746;50.876;4.246;2023-06-19T04:37:27;18.50;99.90
23156;DHT22;11746;50.876;4.246;2023-06-19T04:39:53;18.60;99.90
23156;DHT22;11746;50.876;4.246;2023-06-19T04:42:19;18.70;99.90
23156;DHT22;11746;50.876;4.246;2023-06-19T04:44:47;18.70;99.90
23156;DHT22;11746;50.876;4.246;2023-06-19T04:47:16;18.60;99.90
23156;DHT22;11746;50.876;4.246;2023-06-19T04:49:42;18.60;99.90
23156;DHT22;11746;50.876;4.246;2023-06-19T04:52:09;18.60;99.90
23156;DHT22;11746;50.876;4.246;2023-06-19T04:54:35;18.60;99.90
23156;DHT22;11746;50.876;4.246;2023-06-19T04:57:00;18.70;99.90
23156;DHT22;11746;50.876;4.246;2023-06-19T04:59:27;18.60;99.90
23156;DHT22;11746;50.876;4.246;2023-06-19T05:01:53;18.40;99.90
23156;DHT22;11746;50.876;4.246;2023-06-19T05:04:20;18.30;99.90
23156;DHT22;11746;50.876;4.246;2023-06-19T05:06:48;18.30;99.90
23156;DHT22;11746;50.876;4.246;2023-06-19T05:09:14;18.40;99.90
23156;DHT22;11746;50.876;4.246;2023-06-19T05:11:40;18.40;99.90
23156;DHT22;11746;50.876;4.246;2023-06-19T05:14:06;18.40;99.90
23156;DHT22;11746;50.876;4.246;2023-06-19T05:16:33;18.30;99.90
23156;DHT22;11746;50.876;4.246;2023-06-19T05:18:59;18.40;99.90
23156;DHT22;11746;50.876;4.246;2023-06-19T05:21:25;18.40;99.90
23156;DHT22;11746;50.876;4.246;2023-06-19T05:23:53;18.40;99.90
23156;DHT22;11746;50.876;4.246;2023-06-19T05:26:22;18.40;99.90
23156;DHT22;11746;50.876;4.246;2023-06-19T05:28:49;18.40;99.90
23156;DHT22;11746;50.876;4.246;2023-06-19T05:31:14;18.30;99.90
23156;DHT22;11746;50.876;4.246;2023-06-19T05:33:41;18.20;99.90
23156;DHT22;11746;50.876;4.246;2023-06-19T05:36:07;18.20;99.90
23156;DHT22;11746;50.876;4.246;2023-06-19T05:38:33;18.10;99.90
23156;DHT22;11746;50.876;4.246;2023-06-19T05:40:59;18.10;99.90
23156;DHT22;11746;50.876;4.246;2023-06-19T05:43:26;18.20;99.90
23156;DHT22;11746;50.876;4.246;2023-06-19T05:45:53;18.10;99.90
23156;DHT22;11746;50.876;4.246;2023-06-19T05:48:21;18.00;99.90
23156;DHT22;11746;50.876;4.246;2023-06-19T05:50:47;18.10;99.90
23156;DHT22;11746;50.876;4.246;2023-06-19T05:53:13;18.20;99.90
23156;DHT22;11746;50.876;4.246;2023-06-19T05:55:39;18.20;99.90
23156;DHT22;11746;50.876;4.246;2023-06-19T05:58:05;18.10;99.90
23156;DHT22;11746;50.876;4.246;2023-06-19T06:00:32;18.10;99.90
23156;DHT22;11746;50.876;4.246;2023-06-19T06:02:57;18.20;99.90
23156;DHT22;11746;50.876;4.246;2023-06-19T06:05:26;18.30;99.90
23156;DHT22;11746;50.876;4.246;2023-06-19T06:07:53;18.40;99.90
23156;DHT22;11746;50.876;4.246;2023-06-19T06:10:21;18.30;99.90
23156;DHT22;11746;50.876;4.246;2023-06-19T06:12:48;18.30;99.90
23156;DHT22;11746;50.876;4.246;2023-06-19T06:15:15;18.40;99.90
23156;DHT22;11746;50.876;4.246;2023-06-19T06:17:41;18.30;99.90
23156;DHT22;11746;50.876;4.246;2023-06-19T06:20:07;18.40;99.90
23156;DHT22;11746;50.876;4.246;2023-06-19T06:22:39;18.30;99.90
23156;DHT22;11746;50.876;4.246;2023-06-19T06:25:06;18.40;99.90
23156;DHT22;11746;50.876;4.246;2023-06-19T06:27:32;18.50;99.90
23156;DHT22;11746;50.876;4.246;2023-06-19T06:29:58;18.70;99.90
23156;DHT22;11746;50.876;4.246;2023-06-19T06:32:24;19.00;99.90
23156;DHT22;11746;50.876;4.246;2023-06-19T06:34:51;19.10;99.90
23156;DHT22;11746;50.876;4.246;2023-06-19T06:37:17;19.00;99.90
23156;DHT22;11746;50.876;4.246;2023-06-19T06:39:51;18.90;99.90
23156;DHT22;11746;50.876;4.246;2023-06-19T06:42:18;18.70;99.90
23156;DHT22;11746;50.876;4.246;2023-06-19T06:44:44;18.70;99.90
23156;DHT22;11746;50.876;4.246;2023-06-19T06:47:10;18.60;99.90
23156;DHT22;11746;50.876;4.246;2023-06-19T06:49:37;18.60;99.90
23156;DHT22;11746;50.876;4.246;2023-06-19T06:52:06;18.60;99.90
23156;DHT22;11746;50.876;4.246;2023-06-19T06:54:32;18.70;99.90
23156;DHT22;11746;50.876;4.246;2023-06-19T06:56:58;18.40;99.90
23156;DHT22;11746;50.876;4.246;2023-06-19T06:59:26;18.60;99.90
23156;DHT22;11746;50.876;4.246;2023-06-19T07:01:53;18.90;99.90
23156;DHT22;11746;50.876;4.246;2023-06-19T07:04:19;19.00;99.90
23156;DHT22;11746;50.876;4.246;2023-06-19T07:06:45;18.90;99.90
23156;DHT22;11746;50.876;4.246;2023-06-19T07:09:11;19.00;99.90
23156;DHT22;11746;50.876;4.246;2023-06-19T07:11:37;19.20;99.90
23156;DHT22;11746;50.876;4.246;2023-06-19T07:14:03;19.10;99.90
23156;DHT22;11746;50.876;4.246;2023-06-19T07:16:29;19.10;99.90
23156;DHT22;11746;50.876;4.246;2023-06-19T07:18:55;19.20;99.90
23156;DHT22;11746;50.876;4.246;2023-06-19T07:21:21;19.00;99.90
23156;DHT22;11746;50.876;4.246;2023-06-19T07:23:47;19.20;99.90
23156;DHT22;11746;50.876;4.246;2023-06-19T07:26:13;19.20;99.90
23156;DHT22;11746;50.876;4.246;2023-06-19T07:28:40;19.30;99.90
23156;DHT22;11746;50.876;4.246;2023-06-19T07:31:06;19.20;99.90
23156;DHT22;11746;50.876;4.246;2023-06-19T07:33:32;19.30;99.90
23156;DHT22;11746;50.876;4.246;2023-06-19T07:35:58;19.50;99.90
23156;DHT22;11746;50.876;4.246;2023-06-19T07:38:24;19.80;99.90
23156;DHT22;11746;50.876;4.246;2023-06-19T07:40:50;20.20;99.90
23156;DHT22;11746;50.876;4.246;2023-06-19T07:43:16;20.10;99.90
23156;DHT22;11746;50.876;4.246;2023-06-19T07:45:43;19.90;99.90
23156;DHT22;11746;50.876;4.246;2023-06-19T07:48:09;20.00;99.90
23156;DHT22;11746;50.876;4.246;2023-06-19T07:50:35;20.00;99.90
23156;DHT22;11746;50.876;4.246;2023-06-19T07:53:00;19.90;99.90
23156;DHT22;11746;50.876;4.246;2023-06-19T07:55:26;20.00;99.90
23156;DHT22;11746;50.876;4.246;2023-06-19T07:57:54;19.80;99.90
23156;DHT22;11746;50.876;4.246;2023-06-19T08:00:23;19.80;99.90
23156;DHT22;11746;50.876;4.246;2023-06-19T08:02:50;19.80;99.90
23156;DHT22;11746;50.876;4.246;2023-06-19T08:05:16;19.80;99.90
23156;DHT22;11746;50.876;4.246;2023-06-19T08:07:41;19.90;99.90
23156;DHT22;11746;50.876;4.246;2023-06-19T08:10:08;20.00;99.90
23156;DHT22;11746;50.876;4.246;2023-06-19T08:12:34;20.00;99.90
23156;DHT22;11746;50.876;4.246;2023-06-19T08:15:00;20.00;99.90
23156;DHT22;11746;50.876;4.246;2023-06-19T08:17:26;20.00;99.90
23156;DHT22;11746;50.876;4.246;2023-06-19T08:19:52;20.10;99.90
23156;DHT22;11746;50.876;4.246;2023-06-19T08:22:17;20.10;99.90
23156;DHT22;11746;50.876;4.246;2023-06-19T08:24:43;20.30;99.90
23156;DHT22;11746;50.876;4.246;2023-06-19T08:27:09;20.30;99.90
23156;DHT22;11746;50.876;4.246;2023-06-19T08:29:35;20.70;99.90
23156;DHT22;11746;50.876;4.246;2023-06-19T08:32:01;20.50;99.90
23156;DHT22;11746;50.876;4.246;2023-06-19T08:34:28;20.20;99.90
23156;DHT22;11746;50.876;4.246;2023-06-19T08:36:53;20.20;99.90
23156;DHT22;11746;50.876;4.246;2023-06-19T08:39:19;20.30;99.90
23156;DHT22;11746;50.876;4.246;2023-06-19T08:41:47;20.30;99.90
23156;DHT22;11746;50.876;4.246;2023-06-19T08:44:14;20.50;99.90
23156;DHT22;11746;50.876;4.246;2023-06-19T08:46:39;20.40;99.90
23156;DHT22;11746;50.876;4.246;2023-06-19T08:49:08;20.70;99.90
23156;DHT22;11746;50.876;4.246;2023-06-19T08:51:36;20.90;99.90
23156;DHT22;11746;50.876;4.246;2023-06-19T08:54:04;21.20;99.90
23156;DHT22;11746;50.876;4.246;2023-06-19T08:56:31;21.30;99.90
23156;DHT22;11746;50.876;4.246;2023-06-19T08:59:14;21.20;99.90
23156;DHT22;11746;50.876;4.246;2023-06-19T09:01:47;21.30;99.90
23156;DHT22;11746;50.876;4.246;2023-06-19T09:04:18;21.10;99.90
23156;DHT22;11746;50.876;4.246;2023-06-19T09:06:56;21.30;99.90
23156;DHT22;11746;50.876;4.246;2023-06-19T09:09:24;21.30;99.90
23156;DHT22;11746;50.876;4.246;2023-06-19T09:14:40;21.20;99.90
23156;DHT22;11746;50.876;4.246;2023-06-19T09:17:09;21.20;99.90
23156;DHT22;11746;50.876;4.246;2023-06-19T09:19:36;21.40;99.90
23156;DHT22;11746;50.876;4.246;2023-06-19T09:22:06;21.50;99.90
23156;DHT22;11746;50.876;4.246;2023-06-19T09:24:37;21.70;99.90
23156;DHT22;11746;50.876;4.246;2023-06-19T09:27:11;21.80;99.90
23156;DHT22;11746;50.876;4.246;2023-06-19T09:29:43;21.90;99.90
23156;DHT22;11746;50.876;4.246;2023-06-19T09:32:19;22.20;99.90
23156;DHT22;11746;50.876;4.246;2023-06-19T09:34:46;22.20;99.90
23156;DHT22;11746;50.876;4.246;2023-06-19T09:37:13;22.40;99.90
23156;DHT22;11746;50.876;4.246;2023-06-19T09:39:40;22.20;99.90
23156;DHT22;11746;50.876;4.246;2023-06-19T09:42:09;22.30;99.90
23156;DHT22;11746;50.876;4.246;2023-06-19T09:44:42;22.30;99.90
23156;DHT22;11746;50.876;4.246;2023-06-19T09:47:18;21.90;99.90
23156;DHT22;11746;50.876;4.246;2023-06-19T09:49:55;22.20;99.90
23156;DHT22;11746;50.876;4.246;2023-06-19T09:52:23;22.50;99.90
23156;DHT22;11746;50.876;4.246;2023-06-19T09:54:52;22.40;99.90
23156;DHT22;11746;50.876;4.246;2023-06-19T09:57:20;22.40;99.90
23156;DHT22;11746;50.876;4.246;2023-06-19T09:59:54;22.10;99.90
23156;DHT22;11746;50.876;4.246;2023-06-19T10:02:22;21.90;99.90
23156;DHT22;11746;50.876;4.246;2023-06-19T10:04:53;21.90;99.90
23156;DHT22;11746;50.876;4.246;2023-06-19T10:07:32;22.30;99.90
23156;DHT22;11746;50.876;4.246;2023-06-19T10:10:00;22.70;99.90
23156;DHT22;11746;50.876;4.246;2023-06-19T10:12:42;23.10;99.90
23156;DHT22;11746;50.876;4.246;2023-06-19T10:15:24;22.80;99.90
23156;DHT22;11746;50.876;4.246;2023-06-19T10:17:52;23.00;99.90
23156;DHT22;11746;50.876;4.246;2023-06-19T10:20:27;23.10;99.90
23156;DHT22;11746;50.876;4.246;2023-06-19T10:23:08;23.60;99.90
23156;DHT22;11746;50.876;4.246;2023-06-19T10:25:39;23.70;99.90
23156;DHT22;11746;50.876;4.246;2023-06-19T10:28:16;23.80;99.90
23156;DHT22;11746;50.876;4.246;2023-06-19T10:30:58;23.80;99.90
23156;DHT22;11746;50.876;4.246;2023-06-19T10:33:28;23.80;99.90
23156;DHT22;11746;50.876;4.246;2023-06-19T10:35:55;23.90;99.90
23156;DHT22;11746;50.876;4.246;2023-06-19T10:38:21;23.80;99.90
23156;DHT22;11746;50.876;4.246;2023-06-19T10:40:47;24.10;99.90
23156;DHT22;11746;50.876;4.246;2023-06-19T10:43:22;24.30;99.90
23156;DHT22;11746;50.876;4.246;2023-06-19T10:45:51;24.40;99.90
23156;DHT22;11746;50.876;4.246;2023-06-19T10:48:22;23.90;99.90
23156;DHT22;11746;50.876;4.246;2023-06-19T10:50:49;24.10;99.90
23156;DHT22;11746;50.876;4.246;2023-06-19T10:53:25;23.80;99.90
23156;DHT22;11746;50.876;4.246;2023-06-19T10:55:59;23.90;99.90
23156;DHT22;11746;50.876;4.246;2023-06-19T10:58:26;24.20;99.90
23156;DHT22;11746;50.876;4.246;2023-06-19T11:00:52;24.00;99.90
23156;DHT22;11746;50.876;4.246;2023-06-19T11:03:19;23.90;99.90
23156;DHT22;11746;50.876;4.246;2023-06-19T11:05:46;23.70;99.90
23156;DHT22;11746;50.876;4.246;2023-06-19T11:08:21;23.70;99.90
23156;DHT22;11746;50.876;4.246;2023-06-19T11:10:47;24.00;99.90
23156;DHT22;11746;50.876;4.246;2023-06-19T11:13:18;24.10;99.90
23156;DHT22;11746;50.876;4.246;2023-06-19T11:15:47;24.10;99.90
23156;DHT22;11746;50.876;4.246;2023-06-19T11:18:15;24.30;99.90
23156;DHT22;11746;50.876;4.246;2023-06-19T11:20:50;24.50;99.90
23156;DHT22;11746;50.876;4.246;2023-06-19T11:23:30;25.00;99.90
23156;DHT22;11746;50.876;4.246;2023-06-19T11:26:03;24.80;99.90
23156;DHT22;11746;50.876;4.246;2023-06-19T11:28:29;24.60;99.90
23156;DHT22;11746;50.876;4.246;2023-06-19T11:31:00;25.00;99.90
23156;DHT22;11746;50.876;4.246;2023-06-19T11:33:27;25.20;99.90
23156;DHT22;11746;50.876;4.246;2023-06-19T11:35:53;25.00;99.90
23156;DHT22;11746;50.876;4.246;2023-06-19T11:38:22;24.80;99.90
23156;DHT22;11746;50.876;4.246;2023-06-19T11:40:48;24.50;99.90
23156;DHT22;11746;50.876;4.246;2023-06-19T11:43:27;24.50;99.90
23156;DHT22;11746;50.876;4.246;2023-06-19T11:46:00;24.80;99.90
23156;DHT22;11746;50.876;4.246;2023-06-19T11:48:27;24.60;99.90
23156;DHT22;11746;50.876;4.246;2023-06-19T11:50:53;24.40;99.90
23156;DHT22;11746;50.876;4.246;2023-06-19T11:53:23;25.20;99.90
23156;DHT22;11746;50.876;4.246;2023-06-19T11:55:50;25.50;99.90
23156;DHT22;11746;50.876;4.246;2023-06-19T11:58:17;25.80;99.90
23156;DHT22;11746;50.876;4.246;2023-06-19T12:00:43;25.50;99.90
23156;DHT22;11746;50.876;4.246;2023-06-19T12:03:09;25.20;99.90
23156;DHT22;11746;50.876;4.246;2023-06-19T12:05:36;25.70;99.90
23156;DHT22;11746;50.876;4.246;2023-06-19T12:08:02;25.80;99.90
23156;DHT22;11746;50.876;4.246;2023-06-19T12:10:33;26.10;99.90
23156;DHT22;11746;50.876;4.246;2023-06-19T12:12:59;26.20;99.90
23156;DHT22;11746;50.876;4.246;2023-06-19T12:15:25;26.00;99.90
23156;DHT22;11746;50.876;4.246;2023-06-19T12:17:52;26.40;98.60
23156;DHT22;11746;50.876;4.246;2023-06-19T12:20:18;26.60;99.80
23156;DHT22;11746;50.876;4.246;2023-06-19T12:22:45;27.10;99.60
23156;DHT22;11746;50.876;4.246;2023-06-19T12:25:11;26.70;98.50
23156;DHT22;11746;50.876;4.246;2023-06-19T12:27:38;26.60;97.80
23156;DHT22;11746;50.876;4.246;2023-06-19T12:30:05;27.00;96.90
23156;DHT22;11746;50.876;4.246;2023-06-19T12:32:31;27.30;95.00
23156;DHT22;11746;50.876;4.246;2023-06-19T12:34:57;27.50;94.70
23156;DHT22;11746;50.876;4.246;2023-06-19T12:37:23;27.90;96.70
23156;DHT22;11746;50.876;4.246;2023-06-19T12:39:50;28.30;96.60
23156;DHT22;11746;50.876;4.246;2023-06-19T12:42:17;28.60;96.60
23156;DHT22;11746;50.876;4.246;2023-06-19T12:44:43;28.70;95.00
23156;DHT22;11746;50.876;4.246;2023-06-19T12:47:12;28.00;93.50
23156;DHT22;11746;50.876;4.246;2023-06-19T12:49:38;27.30;95.70
23156;DHT22;11746;50.876;4.246;2023-06-19T12:52:05;27.40;92.70
23156;DHT22;11746;50.876;4.246;2023-06-19T12:54:31;27.30;92.80
23156;DHT22;11746;50.876;4.246;2023-06-19T12:56:57;27.00;95.30
23156;DHT22;11746;50.876;4.246;2023-06-19T12:59:23;27.00;95.30
23156;DHT22;11746;50.876;4.246;2023-06-19T13:01:49;27.10;93.60
23156;DHT22;11746;50.876;4.246;2023-06-19T13:04:15;27.50;92.80
23156;DHT22;11746;50.876;4.246;2023-06-19T13:06:41;27.80;93.40
23156;DHT22;11746;50.876;4.246;2023-06-19T13:09:07;28.30;92.10
23156;DHT22;11746;50.876;4.246;2023-06-19T13:11:33;28.70;90.80
23156;DHT22;11746;50.876;4.246;2023-06-19T13:14:00;28.80;90.80
23156;DHT22;11746;50.876;4.246;2023-06-19T13:16:26;29.20;90.10
23156;DHT22;11746;50.876;4.246;2023-06-19T13:18:52;29.60;88.30
23156;DHT22;11746;50.876;4.246;2023-06-19T13:21:18;29.30;87.20
23156;DHT22;11746;50.876;4.246;2023-06-19T13:23:44;29.50;87.70
23156;DHT22;11746;50.876;4.246;2023-06-19T13:26:10;29.90;86.70
23156;DHT22;11746;50.876;4.246;2023-06-19T13:28:36;30.10;83.60
23156;DHT22;11746;50.876;4.246;2023-06-19T13:31:03;30.40;84.20
23156;DHT22;11746;50.876;4.246;2023-06-19T13:33:29;30.00;81.20
23156;DHT22;11746;50.876;4.246;2023-06-19T13:35:55;29.70;80.70
23156;DHT22;11746;50.876;4.246;2023-06-19T13:38:21;28.90;84.10
23156;DHT22;11746;50.876;4.246;2023-06-19T13:40:47;29.00;83.70
23156;DHT22;11746;50.876;4.246;2023-06-19T13:43:13;29.20;85.20
23156;DHT22;11746;50.876;4.246;2023-06-19T13:45:40;29.80;85.00
23156;DHT22;11746;50.876;4.246;2023-06-19T13:48:06;30.10;83.10
23156;DHT22;11746;50.876;4.246;2023-06-19T13:50:32;29.70;81.30
23156;DHT22;11746;50.876;4.246;2023-06-19T13:52:59;29.60;81.90
23156;DHT22;11746;50.876;4.246;2023-06-19T13:55:25;29.40;82.80
23156;DHT22;11746;50.876;4.246;2023-06-19T13:57:51;29.30;82.90
23156;DHT22;11746;50.876;4.246;2023-06-19T14:00:18;29.30;84.00
23156;DHT22;11746;50.876;4.246;2023-06-19T14:02:44;29.40;84.20
23156;DHT22;11746;50.876;4.246;2023-06-19T14:05:11;29.60;83.20
23156;DHT22;11746;50.876;4.246;2023-06-19T14:07:40;29.20;83.20
23156;DHT22;11746;50.876;4.246;2023-06-19T14:10:08;29.80;82.60
23156;DHT22;11746;50.876;4.246;2023-06-19T14:12:34;29.60;81.40
23156;DHT22;11746;50.876;4.246;2023-06-19T14:15:00;29.30;82.10
23156;DHT22;11746;50.876;4.246;2023-06-19T14:17:26;29.40;81.80
23156;DHT22;11746;50.876;4.246;2023-06-19T14:19:52;29.30;81.60
23156;DHT22;11746;50.876;4.246;2023-06-19T14:22:18;29.80;83.50
23156;DHT22;11746;50.876;4.246;2023-06-19T14:24:44;30.00;81.20
23156;DHT22;11746;50.876;4.246;2023-06-19T14:27:10;30.10;80.10
23156;DHT22;11746;50.876;4.246;2023-06-19T14:29:36;30.20;81.60
23156;DHT22;11746;50.876;4.246;2023-06-19T14:32:02;30.50;81.60
23156;DHT22;11746;50.876;4.246;2023-06-19T14:34:29;30.70;81.10
23156;DHT22;11746;50.876;4.246;2023-06-19T14:36:56;31.10;81.20
23156;DHT22;11746;50.876;4.246;2023-06-19T14:39:22;31.10;81.60
23156;DHT22;11746;50.876;4.246;2023-06-19T14:41:48;30.80;80.00
23156;DHT22;11746;50.876;4.246;2023-06-19T14:44:14;30.70;81.50
23156;DHT22;11746;50.876;4.246;2023-06-19T14:46:40;30.10;78.80
23156;DHT22;11746;50.876;4.246;2023-06-19T14:49:09;29.90;81.90
23156;DHT22;11746;50.876;4.246;2023-06-19T14:51:35;30.40;81.30
23156;DHT22;11746;50.876;4.246;2023-06-19T14:54:01;30.40;80.60
23156;DHT22;11746;50.876;4.246;2023-06-19T14:56:28;30.30;79.20
23156;DHT22;11746;50.876;4.246;2023-06-19T14:58:54;29.30;80.80
23156;DHT22;11746;50.876;4.246;2023-06-19T15:01:20;28.80;82.10
23156;DHT22;11746;50.876;4.246;2023-06-19T15:03:45;28.40;83.10
23156;DHT22;11746;50.876;4.246;2023-06-19T15:06:11;28.30;82.80
23156;DHT22;11746;50.876;4.246;2023-06-19T15:08:37;28.40;83.70
23156;DHT22;11746;50.876;4.246;2023-06-19T15:11:12;28.00;85.20
23156;DHT22;11746;50.876;4.246;2023-06-19T15:13:38;28.00;85.60
23156;DHT22;11746;50.876;4.246;2023-06-19T15:16:04;27.90;86.90
23156;DHT22;11746;50.876;4.246;2023-06-19T15:18:33;28.00;87.10
23156;DHT22;11746;50.876;4.246;2023-06-19T15:20:59;28.20;87.30
23156;DHT22;11746;50.876;4.246;2023-06-19T15:23:25;28.20;85.90
23156;DHT22;11746;50.876;4.246;2023-06-19T15:25:51;28.70;84.50
23156;DHT22;11746;50.876;4.246;2023-06-19T15:28:17;28.50;83.80
23156;DHT22;11746;50.876;4.246;2023-06-19T15:30:44;28.00;84.60
23156;DHT22;11746;50.876;4.246;2023-06-19T15:33:10;28.50;86.30